sensor_id;sensor_type;location;lat;lon;timestamp;P1;durP1;ratioP1;P2;durP2;ratioP2
10144;SDS011;5113;41.822;23.564;2023-07-22T00:01:56;7.13;;;4.60;;
10144;SDS011;5113;41.822;23.564;2023-07-22T00:05:03;3.67;;;3.33;;
10144;SDS011;5113;41.822;23.564;2023-07-22T00:08:11;4.80;;;3.47;;
10144;SDS011;5113;41.822;23.564;2023-07-22T00:11:18;3.80;;;3.30;;
10144;SDS011;5113;41.822;23.564;2023-07-22T00:14:24;5.17;;;3.90;;
10144;SDS011;5113;41.822;23.564;2023-07-22T00:17:30;4.53;;;4.10;;
10144;SDS011;5113;41.822;23.564;2023-07-22T00:20:37;4.97;;;3.80;;
10144;SDS011;5113;41.822;23.564;2023-07-22T00:23:45;5.40;;;4.13;;
10144;SDS011;5113;41.822;23.564;2023-07-22T00:26:52;4.90;;;3.70;;
10144;SDS011;5113;41.822;23.564;2023-07-22T00:29:58;5.60;;;3.57;;
10144;SDS011;5113;41.822;23.564;2023-07-22T00:33:04;4.47;;;4.07;;
10144;SDS011;5113;41.822;23.564;2023-07-22T00:36:11;5.87;;;4.10;;
10144;SDS011;5113;41.822;23.564;2023-07-22T00:39:19;5.43;;;4.20;;
10144;SDS011;5113;41.822;23.564;2023-07-22T00:42:26;9.33;;;4.37;;
10144;SDS011;5113;41.822;23.564;2023-07-22T00:45:32;12.70;;;5.17;;
10144;SDS011;5113;41.822;23.564;2023-07-22T00:48:39;5.70;;;4.10;;
10144;SDS011;5113;41.822;23.564;2023-07-22T00:51:46;7.57;;;4.27;;
10144;SDS011;5113;41.822;23.564;2023-07-22T00:54:54;5.13;;;4.57;;
10144;SDS011;5113;41.822;23.564;2023-07-22T00:58:00;9.97;;;4.37;;
10144;SDS011;5113;41.822;23.564;2023-07-22T01:01:07;5.03;;;4.53;;
10144;SDS011;5113;41.822;23.564;2023-07-22T01:04:13;4.40;;;4.03;;
10144;SDS011;5113;41.822;23.564;2023-07-22T01:07:21;5.60;;;4.17;;
10144;SDS011;5113;41.822;23.564;2023-07-22T01:10:29;9.03;;;4.37;;
10144;SDS011;5113;41.822;23.564;2023-07-22T01:13:36;4.67;;;4.23;;
10144;SDS011;5113;41.822;23.564;2023-07-22T01:16:43;8.13;;;4.30;;
10144;SDS011;5113;41.822;23.564;2023-07-22T01:19:49;7.13;;;4.57;;
10144;SDS011;5113;41.822;23.564;2023-07-22T01:22:58;5.67;;;4.33;;
10144;SDS011;5113;41.822;23.564;2023-07-22T01:26:05;8.80;;;4.20;;
10144;SDS011;5113;41.822;23.564;2023-07-22T01:29:11;7.73;;;4.20;;
10144;SDS011;5113;41.822;23.564;2023-07-22T01:32:18;5.43;;;4.73;;
10144;SDS011;5113;41.822;23.564;2023-07-22T01:35:25;6.00;;;3.83;;
10144;SDS011;5113;41.822;23.564;2023-07-22T01:38:33;6.37;;;4.37;;
10144;SDS011;5113;41.822;23.564;2023-07-22T01:41:40;8.90;;;4.73;;
10144;SDS011;5113;41.822;23.564;2023-07-22T01:44:46;5.77;;;5.20;;
10144;SDS011;5113;41.822;23.564;2023-07-22T01:47:53;5.20;;;4.23;;
10144;SDS011;5113;41.822;23.564;2023-07-22T01:50:59;7.67;;;4.20;;
10144;SDS011;5113;41.822;23.564;2023-07-22T01:54:08;5.23;;;4.20;;
10144;SDS011;5113;41.822;23.564;2023-07-22T01:57:14;6.97;;;4.27;;
10144;SDS011;5113;41.822;23.564;2023-07-22T02:00:21;6.70;;;4.60;;
10144;SDS011;5113;41.822;23.564;2023-07-22T02:03:27;5.40;;;3.97;;
10144;SDS011;5113;41.822;23.564;2023-07-22T02:06:34;4.23;;;3.90;;
10144;SDS011;5113;41.822;23.564;2023-07-22T02:09:41;4.43;;;3.93;;
10144;SDS011;5113;41.822;23.564;2023-07-22T02:12:49;5.60;;;4.13;;
10144;SDS011;5113;41.822;23.564;2023-07-22T02:15:55;3.50;;;3.20;;
10144;SDS011;5113;41.822;23.564;2023-07-22T02:19:02;4.43;;;4.03;;
10144;SDS011;5113;41.822;23.564;2023-07-22T02:22:09;5.10;;;4.60;;
10144;SDS011;5113;41.822;23.564;2023-07-22T02:25:16;5.60;;;4.53;;
10144;SDS011;5113;41.822;23.564;2023-07-22T02:28:22;5.33;;;4.83;;
10144;SDS011;5113;41.822;23.564;2023-07-22T02:31:29;5.20;;;4.40;;
10144;SDS011;5113;41.822;23.564;2023-07-22T02:34:35;8.40;;;4.47;;
10144;SDS011;5113;41.822;23.564;2023-07-22T02:37:42;7.97;;;4.27;;
10144;SDS011;5113;41.822;23.564;2023-07-22T02:40:50;5.23;;;4.47;;
10144;SDS011;5113;41.822;23.564;2023-07-22T02:43:56;6.97;;;4.20;;
10144;SDS011;5113;41.822;23.564;2023-07-22T02:47:03;5.17;;;4.77;;
10144;SDS011;5113;41.822;23.564;2023-07-22T02:50:10;7.60;;;4.40;;
10144;SDS011;5113;41.822;23.564;2023-07-22T02:53:16;4.97;;;4.40;;
10144;SDS011;5113;41.822;23.564;2023-07-22T02:56:25;5.87;;;4.33;;
10144;SDS011;5113;41.822;23.564;2023-07-22T02:59:32;4.90;;;4.30;;
10144;SDS011;5113;41.822;23.564;2023-07-22T03:02:39;5.80;;;4.30;;
10144;SDS011;5113;41.822;23.564;2023-07-22T03:05:46;25.93;;;12.57;;
10144;SDS011;5113;41.822;23.564;2023-07-22T03:08:53;16.90;;;10.57;;
10144;SDS011;5113;41.822;23.564;2023-07-22T03:12:01;18.87;;;9.23;;
10144;SDS011;5113;41.822;23.564;2023-07-22T03:15:09;16.93;;;9.80;;
10144;SDS011;5113;41.822;23.564;2023-07-22T03:18:17;16.33;;;9.93;;
10144;SDS011;5113;41.822;23.564;2023-07-22T03:21:24;16.20;;;11.03;;
10144;SDS011;5113;41.822;23.564;2023-07-22T03:24:33;15.93;;;8.90;;
10144;SDS011;5113;41.822;23.564;2023-07-22T03:27:41;12.60;;;8.10;;
10144;SDS011;5113;41.822;23.564;2023-07-22T03:30:47;11.13;;;7.30;;
10144;SDS011;5113;41.822;23.564;2023-07-22T03:33:54;6.20;;;4.80;;
10144;SDS011;5113;41.822;23.564;2023-07-22T03:37:01;7.53;;;4.97;;
10144;SDS011;5113;41.822;23.564;2023-07-22T03:40:07;6.40;;;4.27;;
10144;SDS011;5113;41.822;23.564;2023-07-22T03:43:21;7.67;;;4.63;;
10144;SDS011;5113;41.822;23.564;2023-07-22T03:46:27;7.40;;;4.30;;
10144;SDS011;5113;41.822;23.564;2023-07-22T03:49:34;8.27;;;4.90;;
10144;SDS011;5113;41.822;23.564;2023-07-22T03:52:40;6.90;;;5.63;;
10144;SDS011;5113;41.822;23.564;2023-07-22T03:55:47;5.53;;;4.50;;
10144;SDS011;5113;41.822;23.564;2023-07-22T03:58:55;10.03;;;5.07;;
10144;SDS011;5113;41.822;23.564;2023-07-22T04:02:01;4.83;;;4.37;;
10144;SDS011;5113;41.822;23.564;2023-07-22T04:05:08;7.47;;;5.17;;
10144;SDS011;5113;41.822;23.564;2023-07-22T04:08:15;6.27;;;4.77;;
10144;SDS011;5113;41.822;23.564;2023-07-22T04:11:22;5.43;;;4.63;;
10144;SDS011;5113;41.822;23.564;2023-07-22T04:14:30;8.00;;;5.07;;
10144;SDS011;5113;41.822;23.564;2023-07-22T04:17:36;4.87;;;4.37;;
10144;SDS011;5113;41.822;23.564;2023-07-22T04:20:43;6.17;;;4.90;;
10144;SDS011;5113;41.822;23.564;2023-07-22T04:23:49;9.20;;;4.70;;
10144;SDS011;5113;41.822;23.564;2023-07-22T04:26:56;10.60;;;5.50;;
10144;SDS011;5113;41.822;23.564;2023-07-22T04:30:04;14.03;;;6.67;;
10144;SDS011;5113;41.822;23.564;2023-07-22T04:33:12;8.50;;;5.90;;
10144;SDS011;5113;41.822;23.564;2023-07-22T04:36:18;7.40;;;5.80;;
10144;SDS011;5113;41.822;23.564;2023-07-22T04:39:25;5.47;;;4.87;;
10144;SDS011;5113;41.822;23.564;2023-07-22T04:42:31;8.37;;;5.53;;
10144;SDS011;5113;41.822;23.564;2023-07-22T04:45:39;7.17;;;5.90;;
10144;SDS011;5113;41.822;23.564;2023-07-22T04:48:46;7.30;;;5.80;;
10144;SDS011;5113;41.822;23.564;2023-07-22T04:51:52;8.87;;;5.73;;
10144;SDS011;5113;41.822;23.564;2023-07-22T04:54:59;6.37;;;5.10;;
10144;SDS011;5113;41.822;23.564;2023-07-22T04:58:05;6.07;;;4.97;;
10144;SDS011;5113;41.822;23.564;2023-07-22T05:01:14;6.20;;;5.60;;
10144;SDS011;5113;41.822;23.564;2023-07-22T05:04:21;8.33;;;5.10;;
10144;SDS011;5113;41.822;23.564;2023-07-22T05:07:27;7.47;;;5.27;;
10144;SDS011;5113;41.822;23.564;2023-07-22T05:10:35;7.27;;;5.07;;
10144;SDS011;5113;41.822;23.564;2023-07-22T05:13:42;7.33;;;5.80;;
10144;SDS011;5113;41.822;23.564;2023-07-22T05:16:50;8.63;;;5.73;;
10144;SDS011;5113;41.822;23.564;2023-07-22T05:19:57;7.50;;;5.97;;
10144;SDS011;5113;41.822;23.564;2023-07-22T05:23:03;6.67;;;5.57;;
10144;SDS011;5113;41.822;23.564;2023-07-22T05:26:10;6.50;;;5.23;;
10144;SDS011;5113;41.822;23.564;2023-07-22T05:29:16;10.50;;;5.50;;
10144;SDS011;5113;41.822;23.564;2023-07-22T05:32:24;6.13;;;5.53;;
10144;SDS011;5113;41.822;23.564;2023-07-22T05:35:37;8.83;;;5.60;;
10144;SDS011;5113;41.822;23.564;2023-07-22T05:38:43;6.67;;;5.93;;
10144;SDS011;5113;41.822;23.564;2023-07-22T05:41:50;8.90;;;5.33;;
10144;SDS011;5113;41.822;23.564;2023-07-22T05:44:57;13.60;;;5.93;;
10144;SDS011;5113;41.822;23.564;2023-07-22T05:48:05;9.77;;;5.63;;
10144;SDS011;5113;41.822;23.564;2023-07-22T05:51:11;8.97;;;6.60;;
10144;SDS011;5113;41.822;23.564;2023-07-22T05:54:20;8.23;;;6.37;;
10144;SDS011;5113;41.822;23.564;2023-07-22T05:57:27;6.73;;;5.77;;
10144;SDS011;5113;41.822;23.564;2023-07-22T06:00:35;7.10;;;5.83;;
10144;SDS011;5113;41.822;23.564;2023-07-22T06:03:43;6.03;;;4.93;;
10144;SDS011;5113;41.822;23.564;2023-07-22T06:06:50;7.10;;;5.77;;
10144;SDS011;5113;41.822;23.564;2023-07-22T06:09:56;7.90;;;5.20;;
10144;SDS011;5113;41.822;23.564;2023-07-22T06:13:03;7.07;;;5.63;;
10144;SDS011;5113;41.822;23.564;2023-07-22T06:16:09;8.37;;;5.63;;
10144;SDS011;5113;41.822;23.564;2023-07-22T06:19:17;6.35;;;5.75;;
10144;SDS011;5113;41.822;23.564;2023-07-22T06:22:24;6.53;;;5.93;;
10144;SDS011;5113;41.822;23.564;2023-07-22T06:25:31;8.95;;;5.65;;
10144;SDS011;5113;41.822;23.564;2023-07-22T06:28:38;5.82;;;5.20;;
10144;SDS011;5113;41.822;23.564;2023-07-22T06:31:44;7.63;;;5.45;;
10144;SDS011;5113;41.822;23.564;2023-07-22T06:34:52;6.95;;;5.80;;
10144;SDS011;5113;41.822;23.564;2023-07-22T06:37:59;6.82;;;5.35;;
10144;SDS011;5113;41.822;23.564;2023-07-22T06:41:05;9.95;;;6.10;;
10144;SDS011;5113;41.822;23.564;2023-07-22T06:44:12;7.80;;;5.53;;
10144;SDS011;5113;41.822;23.564;2023-07-22T06:47:18;8.32;;;6.10;;
10144;SDS011;5113;41.822;23.564;2023-07-22T06:50:26;11.70;;;6.13;;
10144;SDS011;5113;41.822;23.564;2023-07-22T06:53:32;7.10;;;5.18;;
10144;SDS011;5113;41.822;23.564;2023-07-22T06:56:39;9.00;;;4.95;;
10144;SDS011;5113;41.822;23.564;2023-07-22T06:59:45;9.02;;;5.93;;
10144;SDS011;5113;41.822;23.564;2023-07-22T07:02:51;9.18;;;5.82;;
10144;SDS011;5113;41.822;23.564;2023-07-22T07:05:59;5.85;;;5.28;;
10144;SDS011;5113;41.822;23.564;2023-07-22T07:09:06;8.32;;;5.82;;
10144;SDS011;5113;41.822;23.564;2023-07-22T07:12:12;7.03;;;5.18;;
10144;SDS011;5113;41.822;23.564;2023-07-22T07:15:18;5.88;;;5.28;;
10144;SDS011;5113;41.822;23.564;2023-07-22T07:18:25;6.30;;;5.45;;
10144;SDS011;5113;41.822;23.564;2023-07-22T07:21:33;11.23;;;5.82;;
10144;SDS011;5113;41.822;23.564;2023-07-22T07:24:39;6.43;;;5.55;;
10144;SDS011;5113;41.822;23.564;2023-07-22T07:27:46;5.85;;;5.32;;
10144;SDS011;5113;41.822;23.564;2023-07-22T07:30:53;5.78;;;5.20;;
10144;SDS011;5113;41.822;23.564;2023-07-22T07:33:59;6.63;;;5.82;;
10144;SDS011;5113;41.822;23.564;2023-07-22T07:37:07;7.28;;;6.43;;
10144;SDS011;5113;41.822;23.564;2023-07-22T07:40:14;6.53;;;5.15;;
10144;SDS011;5113;41.822;23.564;2023-07-22T07:43:20;6.25;;;5.65;;
10144;SDS011;5113;41.822;23.564;2023-07-22T07:46:27;6.38;;;5.65;;
10144;SDS011;5113;41.822;23.564;2023-07-22T07:49:34;6.68;;;5.80;;
10144;SDS011;5113;41.822;23.564;2023-07-22T07:52:42;10.00;;;5.47;;
10144;SDS011;5113;41.822;23.564;2023-07-22T07:55:48;9.90;;;5.97;;
10144;SDS011;5113;41.822;23.564;2023-07-22T07:58:55;6.47;;;5.88;;
10144;SDS011;5113;41.822;23.564;2023-07-22T08:02:02;6.90;;;6.13;;
10144;SDS011;5113;41.822;23.564;2023-07-22T08:05:14;5.90;;;5.35;;
10144;SDS011;5113;41.822;23.564;2023-07-22T08:08:22;8.48;;;5.72;;
10144;SDS011;5113;41.822;23.564;2023-07-22T08:11:29;7.28;;;6.13;;
10144;SDS011;5113;41.822;23.564;2023-07-22T08:14:35;6.63;;;5.68;;
10144;SDS011;5113;41.822;23.564;2023-07-22T08:17:42;7.82;;;6.00;;
10144;SDS011;5113;41.822;23.564;2023-07-22T08:20:49;7.50;;;5.95;;
10144;SDS011;5113;41.822;23.564;2023-07-22T08:23:57;6.47;;;5.88;;
10144;SDS011;5113;41.822;23.564;2023-07-22T08:27:03;6.70;;;5.75;;
10144;SDS011;5113;41.822;23.564;2023-07-22T08:30:10;7.15;;;6.38;;
10144;SDS011;5113;41.822;23.564;2023-07-22T08:33:17;6.20;;;5.40;;
10144;SDS011;5113;41.822;23.564;2023-07-22T08:36:43;7.32;;;6.28;;
10144;SDS011;5113;41.822;23.564;2023-07-22T08:39:51;5.85;;;5.35;;
10144;SDS011;5113;41.822;23.564;2023-07-22T08:42:58;5.70;;;5.20;;
10144;SDS011;5113;41.822;23.564;2023-07-22T08:46:05;9.70;;;5.38;;
10144;SDS011;5113;41.822;23.564;2023-07-22T08:49:12;6.00;;;4.97;;
10144;SDS011;5113;41.822;23.564;2023-07-22T08:52:21;6.53;;;5.22;;
10144;SDS011;5113;41.822;23.564;2023-07-22T08:55:30;4.60;;;4.20;;
10144;SDS011;5113;41.822;23.564;2023-07-22T08:58:36;8.45;;;4.75;;
10144;SDS011;5113;41.822;23.564;2023-07-22T09:01:44;5.07;;;4.20;;
10144;SDS011;5113;41.822;23.564;2023-07-22T09:04:53;7.25;;;4.38;;
10144;SDS011;5113;41.822;23.564;2023-07-22T09:08:01;7.90;;;4.15;;
10144;SDS011;5113;41.822;23.564;2023-07-22T09:11:10;6.70;;;4.18;;
10144;SDS011;5113;41.822;23.564;2023-07-22T09:14:17;7.88;;;4.22;;
10144;SDS011;5113;41.822;23.564;2023-07-22T09:17:40;4.65;;;4.18;;
10144;SDS011;5113;41.822;23.564;2023-07-22T09:20:46;5.20;;;4.28;;
10144;SDS011;5113;41.822;23.564;2023-07-22T09:23:53;8.85;;;4.60;;
10144;SDS011;5113;41.822;23.564;2023-07-22T09:27:01;5.45;;;4.88;;
10144;SDS011;5113;41.822;23.564;2023-07-22T09:33:31;6.55;;;4.35;;
10144;SDS011;5113;41.822;23.564;2023-07-22T09:36:48;7.95;;;4.90;;
10144;SDS011;5113;41.822;23.564;2023-07-22T09:39:56;6.70;;;4.43;;
10144;SDS011;5113;41.822;23.564;2023-07-22T09:43:04;7.38;;;4.53;;
10144;SDS011;5113;41.822;23.564;2023-07-22T09:46:11;6.72;;;4.55;;
10144;SDS011;5113;41.822;23.564;2023-07-22T09:49:30;5.43;;;4.72;;
10144;SDS011;5113;41.822;23.564;2023-07-22T09:52:40;6.88;;;4.68;;
10144;SDS011;5113;41.822;23.564;2023-07-22T09:55:47;4.30;;;3.95;;
10144;SDS011;5113;41.822;23.564;2023-07-22T09:58:56;7.10;;;4.50;;
10144;SDS011;5113;41.822;23.564;2023-07-22T10:02:05;5.07;;;4.57;;
10144;SDS011;5113;41.822;23.564;2023-07-22T10:05:13;4.68;;;4.22;;
10144;SDS011;5113;41.822;23.564;2023-07-22T10:08:21;5.18;;;4.18;;
10144;SDS011;5113;41.822;23.564;2023-07-22T10:11:29;6.63;;;4.60;;
10144;SDS011;5113;41.822;23.564;2023-07-22T10:14:38;8.38;;;5.00;;
10144;SDS011;5113;41.822;23.564;2023-07-22T10:17:45;6.35;;;4.38;;
10144;SDS011;5113;41.822;23.564;2023-07-22T10:20:52;7.32;;;4.05;;
10144;SDS011;5113;41.822;23.564;2023-07-22T10:24:00;7.82;;;4.00;;
10144;SDS011;5113;41.822;23.564;2023-07-22T10:27:08;8.55;;;4.10;;
10144;SDS011;5113;41.822;23.564;2023-07-22T10:30:17;8.63;;;4.30;;
10144;SDS011;5113;41.822;23.564;2023-07-22T10:33:24;7.32;;;4.20;;
10144;SDS011;5113;41.822;23.564;2023-07-22T10:36:31;4.40;;;3.97;;
10144;SDS011;5113;41.822;23.564;2023-07-22T10:39:37;7.30;;;4.60;;
10144;SDS011;5113;41.822;23.564;2023-07-22T10:42:50;8.00;;;4.07;;
10144;SDS011;5113;41.822;23.564;2023-07-22T10:46:04;8.55;;;4.35;;
10144;SDS011;5113;41.822;23.564;2023-07-22T10:49:12;4.93;;;4.35;;
10144;SDS011;5113;41.822;23.564;2023-07-22T10:56:03;8.57;;;4.53;;
10144;SDS011;5113;41.822;23.564;2023-07-22T10:59:13;10.98;;;4.75;;
10144;SDS011;5113;41.822;23.564;2023-07-22T11:02:25;8.48;;;4.28;;
10144;SDS011;5113;41.822;23.564;2023-07-22T11:05:46;7.60;;;4.00;;
10144;SDS011;5113;41.822;23.564;2023-07-22T11:08:53;8.98;;;4.68;;
10144;SDS011;5113;41.822;23.564;2023-07-22T11:12:02;4.00;;;3.67;;
10144;SDS011;5113;41.822;23.564;2023-07-22T11:15:09;3.83;;;3.40;;
10144;SDS011;5113;41.822;23.564;2023-07-22T11:18:17;6.95;;;3.85;;
10144;SDS011;5113;41.822;23.564;2023-07-22T11:21:23;6.05;;;3.80;;
10144;SDS011;5113;41.822;23.564;2023-07-22T11:24:31;7.40;;;4.57;;
10144;SDS011;5113;41.822;23.564;2023-07-22T11:27:39;12.50;;;7.68;;
10144;SDS011;5113;41.822;23.564;2023-07-22T11:30:47;4.85;;;3.72;;
10144;SDS011;5113;41.822;23.564;2023-07-22T11:33:55;4.25;;;3.85;;
10144;SDS011;5113;41.822;23.564;2023-07-22T11:37:02;5.40;;;4.97;;
10144;SDS011;5113;41.822;23.564;2023-07-22T11:40:11;8.52;;;6.28;;
10144;SDS011;5113;41.822;23.564;2023-07-22T11:43:20;6.78;;;6.15;;
10144;SDS011;5113;41.822;23.564;2023-07-22T11:46:26;5.55;;;3.53;;
10144;SDS011;5113;41.822;23.564;2023-07-22T11:49:34;7.38;;;5.90;;
10144;SDS011;5113;41.822;23.564;2023-07-22T11:52:41;5.28;;;4.28;;
10144;SDS011;5113;41.822;23.564;2023-07-22T11:55:48;4.82;;;3.15;;
10144;SDS011;5113;41.822;23.564;2023-07-22T11:58:57;5.18;;;3.78;;
10144;SDS011;5113;41.822;23.564;2023-07-22T12:02:03;8.38;;;6.13;;
10144;SDS011;5113;41.822;23.564;2023-07-22T12:05:12;5.68;;;3.15;;
10144;SDS011;5113;41.822;23.564;2023-07-22T12:08:27;3.65;;;3.38;;
10144;SDS011;5113;41.822;23.564;2023-07-22T12:11:34;5.18;;;3.10;;
10144;SDS011;5113;41.822;23.564;2023-07-22T12:14:41;7.95;;;3.60;;
10144;SDS011;5113;41.822;23.564;2023-07-22T12:17:48;5.20;;;2.92;;
10144;SDS011;5113;41.822;23.564;2023-07-22T12:20:59;3.92;;;3.28;;
10144;SDS011;5113;41.822;23.564;2023-07-22T12:24:13;4.60;;;3.22;;
10144;SDS011;5113;41.822;23.564;2023-07-22T12:27:20;7.50;;;3.40;;
10144;SDS011;5113;41.822;23.564;2023-07-22T12:30:26;3.85;;;3.45;;
10144;SDS011;5113;41.822;23.564;2023-07-22T12:33:32;8.65;;;3.13;;
10144;SDS011;5113;41.822;23.564;2023-07-22T12:36:40;7.18;;;4.10;;
10144;SDS011;5113;41.822;23.564;2023-07-22T12:39:46;5.65;;;3.92;;
10144;SDS011;5113;41.822;23.564;2023-07-22T12:42:52;5.90;;;3.40;;
10144;SDS011;5113;41.822;23.564;2023-07-22T12:45:59;5.55;;;2.80;;
10144;SDS011;5113;41.822;23.564;2023-07-22T12:49:05;7.28;;;3.85;;
10144;SDS011;5113;41.822;23.564;2023-07-22T12:52:13;3.88;;;3.58;;
10144;SDS011;5113;41.822;23.564;2023-07-22T12:55:20;9.30;;;4.82;;
10144;SDS011;5113;41.822;23.564;2023-07-22T12:58:26;5.65;;;3.17;;
10144;SDS011;5113;41.822;23.564;2023-07-22T13:01:33;4.30;;;3.78;;
10144;SDS011;5113;41.822;23.564;2023-07-22T13:04:39;5.97;;;4.38;;
10144;SDS011;5113;41.822;23.564;2023-07-22T13:07:47;9.00;;;4.72;;
10144;SDS011;5113;41.822;23.564;2023-07-22T13:10:54;7.82;;;4.53;;
10144;SDS011;5113;41.822;23.564;2023-07-22T13:14:00;6.57;;;3.50;;
10144;SDS011;5113;41.822;23.564;2023-07-22T13:17:07;7.43;;;3.05;;
10144;SDS011;5113;41.822;23.564;2023-07-22T13:20:14;4.15;;;3.03;;
10144;SDS011;5113;41.822;23.564;2023-07-22T13:23:23;7.38;;;4.15;;
10144;SDS011;5113;41.822;23.564;2023-07-22T13:26:29;4.93;;;3.33;;
10144;SDS011;5113;41.822;23.564;2023-07-22T13:29:36;5.00;;;3.25;;
10144;SDS011;5113;41.822;23.564;2023-07-22T13:32:42;6.00;;;4.13;;
10144;SDS011;5113;41.822;23.564;2023-07-22T13:35:48;5.40;;;3.58;;
10144;SDS011;5113;41.822;23.564;2023-07-22T13:38:56;11.63;;;4.03;;
10144;SDS011;5113;41.822;23.564;2023-07-22T13:42:03;7.13;;;4.65;;
10144;SDS011;5113;41.822;23.564;2023-07-22T13:45:09;7.38;;;3.30;;
10144;SDS011;5113;41.822;23.564;2023-07-22T13:48:16;4.22;;;3.38;;
10144;SDS011;5113;41.822;23.564;2023-07-22T13:51:22;12.35;;;4.75;;
10144;SDS011;5113;41.822;23.564;2023-07-22T13:54:31;18.02;;;16.17;;
10144;SDS011;5113;41.822;23.564;2023-07-22T13:57:37;7.72;;;4.47;;
10144;SDS011;5113;41.822;23.564;2023-07-22T14:00:44;8.05;;;5.97;;
10144;SDS011;5113;41.822;23.564;2023-07-22T14:03:50;18.65;;;16.33;;
10144;SDS011;5113;41.822;23.564;2023-07-22T14:06:57;11.23;;;9.95;;
10144;SDS011;5113;41.822;23.564;2023-07-22T14:10:05;21.77;;;13.25;;
10144;SDS011;5113;41.822;23.564;2023-07-22T14:13:13;33.35;;;19.27;;
10144;SDS011;5113;41.822;23.564;2023-07-22T14:16:20;10.38;;;8.10;;
10144;SDS011;5113;41.822;23.564;2023-07-22T14:19:27;6.65;;;3.28;;
10144;SDS011;5113;41.822;23.564;2023-07-22T14:22:34;6.35;;;5.40;;
10144;SDS011;5113;41.822;23.564;2023-07-22T14:25:42;3.97;;;3.47;;
10144;SDS011;5113;41.822;23.564;2023-07-22T14:28:48;5.07;;;4.10;;
10144;SDS011;5113;41.822;23.564;2023-07-22T14:31:55;6.15;;;3.97;;
10144;SDS011;5113;41.822;23.564;2023-07-22T14:35:03;5.68;;;4.25;;
10144;SDS011;5113;41.822;23.564;2023-07-22T14:38:10;12.52;;;4.05;;
10144;SDS011;5113;41.822;23.564;2023-07-22T14:41:18;5.88;;;3.65;;
10144;SDS011;5113;41.822;23.564;2023-07-22T14:44:24;4.65;;;3.15;;
10144;SDS011;5113;41.822;23.564;2023-07-22T14:47:31;4.72;;;2.95;;
10144;SDS011;5113;41.822;23.564;2023-07-22T14:50:37;4.53;;;3.15;;
10144;SDS011;5113;41.822;23.564;2023-07-22T14:53:44;7.45;;;3.88;;
10144;SDS011;5113;41.822;23.564;2023-07-22T14:56:52;6.57;;;5.05;;
10144;SDS011;5113;41.822;23.564;2023-07-22T14:59:58;4.88;;;3.80;;
10144;SDS011;5113;41.822;23.564;2023-07-22T15:03:04;8.48;;;4.30;;
10144;SDS011;5113;41.822;23.564;2023-07-22T15:06:10;9.23;;;3.75;;
10144;SDS011;5113;41.822;23.564;2023-07-22T15:09:16;5.25;;;3.90;;
10144;SDS011;5113;41.822;23.564;2023-07-22T15:12:24;4.45;;;3.30;;
10144;SDS011;5113;41.822;23.564;2023-07-22T15:15:30;11.25;;;3.97;;
10144;SDS011;5113;41.822;23.564;2023-07-22T15:18:37;3.20;;;2.92;;
10144;SDS011;5113;41.822;23.564;2023-07-22T15:21:43;3.85;;;3.05;;
10144;SDS011;5113;41.822;23.564;2023-07-22T15:24:50;4.38;;;3.75;;
10144;SDS011;5113;41.822;23.564;2023-07-22T15:27:58;5.93;;;3.78;;
10144;SDS011;5113;41.822;23.564;2023-07-22T15:31:04;3.95;;;3.63;;
10144;SDS011;5113;41.822;23.564;2023-07-22T15:34:11;7.15;;;3.60;;
10144;SDS011;5113;41.822;23.564;2023-07-22T15:37:18;5.60;;;3.80;;
10144;SDS011;5113;41.822;23.564;2023-07-22T15:40:24;5.22;;;3.15;;
10144;SDS011;5113;41.822;23.564;2023-07-22T15:43:32;4.30;;;3.28;;
10144;SDS011;5113;41.822;23.564;2023-07-22T15:46:39;5.35;;;3.20;;
10144;SDS011;5113;41.822;23.564;2023-07-22T15:49:45;6.22;;;3.20;;
10144;SDS011;5113;41.822;23.564;2023-07-22T15:52:52;5.95;;;3.95;;
10144;SDS011;5113;41.822;23.564;2023-07-22T15:55:59;8.20;;;3.50;;
10144;SDS011;5113;41.822;23.564;2023-07-22T15:59:07;3.90;;;3.05;;
10144;SDS011;5113;41.822;23.564;2023-07-22T16:02:13;8.10;;;3.35;;
10144;SDS011;5113;41.822;23.564;2023-07-22T16:05:19;5.30;;;3.60;;
10144;SDS011;5113;41.822;23.564;2023-07-22T16:08:27;7.45;;;3.90;;
10144;SDS011;5113;41.822;23.564;2023-07-22T16:11:36;9.02;;;3.53;;
10144;SDS011;5113;41.822;23.564;2023-07-22T16:14:45;5.63;;;4.20;;
10144;SDS011;5113;41.822;23.564;2023-07-22T16:17:51;8.05;;;3.60;;
10144;SDS011;5113;41.822;23.564;2023-07-22T16:20:57;10.43;;;4.30;;
10144;SDS011;5113;41.822;23.564;2023-07-22T16:24:04;4.93;;;3.08;;
10144;SDS011;5113;41.822;23.564;2023-07-22T16:27:10;5.22;;;3.58;;
10144;SDS011;5113;41.822;23.564;2023-07-22T16:30:18;4.50;;;2.72;;
10144;SDS011;5113;41.822;23.564;2023-07-22T16:33:24;4.80;;;2.97;;
10144;SDS011;5113;41.822;23.564;2023-07-22T16:36:31;4.38;;;3.20;;
10144;SDS011;5113;41.822;23.564;2023-07-22T16:39:37;8.63;;;3.72;;
10144;SDS011;5113;41.822;23.564;2023-07-22T16:42:44;8.98;;;4.53;;
10144;SDS011;5113;41.822;23.564;2023-07-22T16:45:55;8.68;;;5.20;;
10144;SDS011;5113;41.822;23.564;2023-07-22T16:49:02;5.57;;;3.92;;
10144;SDS011;5113;41.822;23.564;2023-07-22T16:52:09;7.43;;;4.15;;
10144;SDS011;5113;41.822;23.564;2023-07-22T16:55:15;7.35;;;3.22;;
10144;SDS011;5113;41.822;23.564;2023-07-22T16:58:22;6.53;;;3.90;;
10144;SDS011;5113;41.822;23.564;2023-07-22T17:01:30;9.10;;;4.25;;
10144;SDS011;5113;41.822;23.564;2023-07-22T17:04:36;9.15;;;3.65;;
10144;SDS011;5113;41.822;23.564;2023-07-22T17:07:42;6.82;;;3.70;;
10144;SDS011;5113;41.822;23.564;2023-07-22T17:10:51;5.18;;;3.55;;
10144;SDS011;5113;41.822;23.564;2023-07-22T17:13:57;6.15;;;3.35;;
10144;SDS011;5113;41.822;23.564;2023-07-22T17:17:05;8.27;;;4.82;;
10144;SDS011;5113;41.822;23.564;2023-07-22T17:20:12;6.50;;;4.15;;
10144;SDS011;5113;41.822;23.564;2023-07-22T17:23:19;7.43;;;4.38;;
10144;SDS011;5113;41.822;23.564;2023-07-22T17:26:25;7.43;;;4.80;;
10144;SDS011;5113;41.822;23.564;2023-07-22T17:29:32;6.03;;;3.85;;
10144;SDS011;5113;41.822;23.564;2023-07-22T17:32:40;7.45;;;4.18;;
10144;SDS011;5113;41.822;23.564;2023-07-22T17:35:49;9.35;;;4.47;;
10144;SDS011;5113;41.822;23.564;2023-07-22T17:38:55;6.10;;;4.15;;
10144;SDS011;5113;41.822;23.564;2023-07-22T17:42:02;9.07;;;4.28;;
10144;SDS011;5113;41.822;23.564;2023-07-22T17:45:09;11.25;;;4.93;;
10144;SDS011;5113;41.822;23.564;2023-07-22T17:48:17;11.60;;;5.80;;
10144;SDS011;5113;41.822;23.564;2023-07-22T17:51:24;6.68;;;5.10;;
10144;SDS011;5113;41.822;23.564;2023-07-22T17:54:31;8.05;;;5.93;;
10144;SDS011;5113;41.822;23.564;2023-07-22T17:57:38;9.32;;;5.35;;
10144;SDS011;5113;41.822;23.564;2023-07-22T18:00:44;4.60;;;3.90;;
10144;SDS011;5113;41.822;23.564;2023-07-22T18:03:53;6.95;;;4.68;;
10144;SDS011;5113;41.822;23.564;2023-07-22T18:06:59;10.77;;;5.55;;
10144;SDS011;5113;41.822;23.564;2023-07-22T18:10:07;5.63;;;3.60;;
10144;SDS011;5113;41.822;23.564;2023-07-22T18:13:14;6.15;;;5.20;;
10144;SDS011;5113;41.822;23.564;2023-07-22T18:16:20;11.85;;;3.92;;
10144;SDS011;5113;41.822;23.564;2023-07-22T18:19:28;6.97;;;4.05;;
10144;SDS011;5113;41.822;23.564;2023-07-22T18:22:34;6.78;;;4.43;;
10144;SDS011;5113;41.822;23.564;2023-07-22T18:25:41;9.52;;;5.82;;
10144;SDS011;5113;41.822;23.564;2023-07-22T18:28:47;10.43;;;5.65;;
10144;SDS011;5113;41.822;23.564;2023-07-22T18:31:54;10.27;;;5.05;;
10144;SDS011;5113;41.822;23.564;2023-07-22T18:35:02;6.20;;;3.65;;
10144;SDS011;5113;41.822;23.564;2023-07-22T18:38:08;7.68;;;3.30;;
10144;SDS011;5113;41.822;23.564;2023-07-22T18:41:14;5.30;;;3.42;;
10144;SDS011;5113;41.822;23.564;2023-07-22T18:44:21;9.60;;;5.13;;
10144;SDS011;5113;41.822;23.564;2023-07-22T18:47:28;12.50;;;5.78;;
10144;SDS011;5113;41.822;23.564;2023-07-22T18:50:36;10.57;;;5.53;;
10144;SDS011;5113;41.822;23.564;2023-07-22T18:53:42;10.85;;;4.60;;